Time,TemperatureF,DewpointF,PressureIn,WindDirection,WindDirectionDegrees,WindSpeedMPH,WindSpeedGustMPH,Humidity,HourlyPrecipIn,Conditions,Clouds,dailyrainin,SoftwareType,DateUTC
2013-06-18 00:01:00,61.3,57.7,29.92,SSW,201,0.0,0.0,88,0.00,,,0.00,WeatherDisplay:10.37,2013-06-18 04:01:00,
2013-06-18 00:02:00,61.2,57.9,29.92,WSW,243,0.0,0.0,89,0.00,,,0.00,WeatherDisplay:10.37,2013-06-18 04:02:00,
2013-06-18 00:07:00,61.4,58.1,29.92,WSW,252,0.0,0.0,89,0.00,,,0.00,WeatherDisplay:10.37,2013-06-18 04:07:00,
2013-06-18 00:12:00,61.6,58.3,29.92,WSW,253,0.0,0.0,89,0.00,,,0.00,WeatherDisplay:10.37,2013-06-18 04:12:00,
2013-06-18 00:17:00,61.4,58.1,29.92,WSW,255,0.0,0.0,89,0.00,,,0.00,WeatherDisplay:10.37,2013-06-18 04:17:00,
2013-06-18 00:22:00,61.2,57.9,29.92,WSW,257,0.0,0.0,89,0.00,,,0.00,WeatherDisplay:10.37,2013-06-18 04:22:00,
2013-06-18 00:27:00,61.1,57.8,29.92,NW,317,0.0,0.0,89,0.00,,,0.00,WeatherDisplay:10.37,2013-06-18 04:27:00,
2013-06-18 00:32:00,60.8,57.5,29.92,NW,316,0.0,0.0,89,0.00,,,0.00,WeatherDisplay:10.37,2013-06-18 04:32:00,
2013-06-18 00:37:00,60.6,57.3,29.92,North,1,1.1,1.1,89,0.00,,,0.00,WeatherDisplay:10.37,2013-06-18 04:37:00,
2013-06-18 00:42:00,60.3,57.0,29.91,North,1,0.0,0.0,89,0.00,,,0.00,WeatherDisplay:10.37,2013-06-18 04:42:00,
2013-06-18 00:47:00,60.1,56.8,29.91,North,352,1.1,0.0,89,0.00,,,0.00,WeatherDisplay:10.37,2013-06-18 04:47:00,
2013-06-18 00:52:00,59.9,56.6,29.91,NNW,343,0.0,0.0,89,0.00,,,0.00,WeatherDisplay:10.37,2013-06-18 04:52:00,
2013-06-18 00:57:00,59.7,56.5,29.91,West,266,0.0,0.0,89,0.00,,,0.00,WeatherDisplay:10.37,2013-06-18 04:57:00,
2013-06-18 01:02:00,59.5,56.3,29.91,WNW,293,0.0,0.0,89,0.00,,,0.00,WeatherDisplay:10.37,2013-06-18 05:02:00,
2013-06-18 01:07:00,59.3,56.1,29.90,NNE,13,1.1,1.1,89,0.00,,,0.00,WeatherDisplay:10.37,2013-06-18 05:07:00,
2013-06-18 01:12:00,59.2,56.0,29.90,NNE,25,0.0,0.0,89,0.00,,,0.00,WeatherDisplay:10.37,2013-06-18 05:12:00,
2013-06-18 01:17:00,59.0,55.8,29.91,NNE,25,0.0,0.0,89,0.00,,,0.00,WeatherDisplay:10.37,2013-06-18 05:17:00,
2013-06-18 01:22:00,58.9,55.7,29.91,WNW,295,0.0,0.0,89,0.00,,,0.00,WeatherDisplay:10.37,2013-06-18 05:22:00,
2013-06-18 01:27:00,58.8,55.6,29.91,WNW,295,0.0,0.0,89,0.00,,,0.00,WeatherDisplay:10.37,2013-06-18 05:27:00,
2013-06-18 01:33:00,58.7,55.2,29.91,West,269,2.3,0.0,88,0.00,,,0.00,WeatherDisplay:10.37,2013-06-18 05:33:00,
2013-06-18 01:38:00,58.7,55.2,29.91,West,269,0.0,0.0,88,0.00,,,0.00,WeatherDisplay:10.37,2013-06-18 05:38:00,
2013-06-18 01:43:00,58.7,55.2,29.91,West,268,0.0,0.0,88,0.00,,,0.00,WeatherDisplay:10.37,2013-06-18 05:43:00,
2013-06-18 01:48:00,58.7,55.2,29.91,West,269,0.0,0.0,88,0.00,,,0.00,WeatherDisplay:10.37,2013-06-18 05:48:00,
2013-06-18 01:53:00,58.7,55.2,29.91,NW,307,1.1,0.0,88,0.00,,,0.00,WeatherDisplay:10.37,2013-06-18 05:53:00,
2013-06-18 01:58:00,58.6,55.1,29.91,NW,306,0.0,0.0,88,0.00,,,0.00,WeatherDisplay:10.37,2013-06-18 05:58:00,
2013-06-18 02:03:00,58.6,55.1,29.91,NE,52,1.1,0.0,88,0.00,,,0.00,WeatherDisplay:10.37,2013-06-18 06:03:00,
2013-06-18 02:08:00,58.6,55.1,29.91,NW,305,1.1,1.1,88,0.00,,,0.00,WeatherDisplay:10.37,2013-06-18 06:08:00,
2013-06-18 02:13:00,58.6,55.4,29.90,NW,304,0.0,0.0,89,0.00,,,0.00,WeatherDisplay:10.37,2013-06-18 06:13:00,
2013-06-18 02:18:00,58.6,55.4,29.90,ENE,63,2.3,2.3,89,0.00,,,0.00,WeatherDisplay:10.37,2013-06-18 06:18:00,
2013-06-18 02:23:00,58.6,55.4,29.90,NNE,26,2.3,2.3,89,0.00,,,0.00,WeatherDisplay:10.37,2013-06-18 06:23:00,
2013-06-18 02:28:00,58.6,55.4,29.90,NNW,331,0.0,0.0,89,0.00,,,0.00,WeatherDisplay:10.37,2013-06-18 06:28:00,
2013-06-18 02:33:00,58.6,55.4,29.90,WSW,239,0.0,0.0,89,0.00,,,0.00,WeatherDisplay:10.37,2013-06-18 06:33:00,
2013-06-18 02:38:00,58.6,55.4,29.90,WSW,239,0.0,0.0,89,0.00,,,0.00,WeatherDisplay:10.37,2013-06-18 06:38:00,
2013-06-18 02:43:00,58.5,55.3,29.90,WSW,239,0.0,0.0,89,0.00,,,0.00,WeatherDisplay:10.37,2013-06-18 06:43:00,
2013-06-18 02:48:00,58.4,55.2,29.90,North,359,1.1,1.1,89,0.00,,,0.00,WeatherDisplay:10.37,2013-06-18 06:48:00,
2013-06-18 02:53:00,58.4,55.2,29.90,NW,326,0.0,0.0,89,0.00,,,0.00,WeatherDisplay:10.37,2013-06-18 06:53:00,
2013-06-18 02:58:00,58.4,55.2,29.90,NW,326,0.0,0.0,89,0.00,,,0.00,WeatherDisplay:10.37,2013-06-18 06:58:00,
2013-06-18 03:03:00,58.4,55.2,29.90,NW,326,0.0,0.0,89,0.00,,,0.00,WeatherDisplay:10.37,2013-06-18 07:03:00,
2013-06-18 03:08:00,58.3,55.1,29.90,NW,326,0.0,0.0,89,0.00,,,0.00,WeatherDisplay:10.37,2013-06-18 07:08:00,
2013-06-18 03:13:00,58.2,54.7,29.90,NW,326,0.0,0.0,88,0.00,,,0.00,WeatherDisplay:10.37,2013-06-18 07:13:00,
2013-06-18 03:18:00,58.2,54.7,29.90,NNW,338,0.0,0.0,88,0.00,,,0.00,WeatherDisplay:10.37,2013-06-18 07:18:00,
2013-06-18 03:23:00,58.2,54.7,29.89,NNE,32,0.0,0.0,88,0.00,,,0.00,WeatherDisplay:10.37,2013-06-18 07:23:00,
2013-06-18 03:28:00,58.1,54.6,29.90,NNE,18,0.0,0.0,88,0.00,,,0.00,WeatherDisplay:10.37,2013-06-18 07:28:00,
2013-06-18 03:33:00,58.2,54.7,29.90,NNW,333,0.0,0.0,88,0.00,,,0.00,WeatherDisplay:10.37,2013-06-18 07:33:00,
2013-06-18 03:38:00,58.2,54.7,29.90,NNW,333,0.0,0.0,88,0.00,,,0.00,WeatherDisplay:10.37,2013-06-18 07:38:00,
2013-06-18 03:43:00,58.2,54.7,29.90,ESE,120,0.0,0.0,88,0.00,,,0.00,WeatherDisplay:10.37,2013-06-18 07:43:00,
2013-06-18 03:48:00,58.2,54.7,29.90,ESE,120,0.0,0.0,88,0.00,,,0.00,WeatherDisplay:10.37,2013-06-18 07:48:00,
2013-06-18 03:53:00,58.2,54.7,29.90,ESE,120,0.0,0.0,88,0.00,,,0.00,WeatherDisplay:10.37,2013-06-18 07:53:00,
2013-06-18 03:58:00,58.2,54.7,29.89,ESE,120,0.0,0.0,88,0.00,,,0.00,WeatherDisplay:10.37,2013-06-18 07:58:00,
2013-06-18 04:03:00,58.2,54.7,29.90,ESE,120,0.0,0.0,88,0.00,,,0.00,WeatherDisplay:10.37,2013-06-18 08:03:00,
2013-06-18 04:08:00,58.2,54.7,29.89,East,97,0.0,0.0,88,0.00,,,0.00,WeatherDisplay:10.37,2013-06-18 08:08:00,
2013-06-18 04:13:00,58.1,54.9,29.89,East,97,0.0,0.0,89,0.00,,,0.00,WeatherDisplay:10.37,2013-06-18 08:13:00,
2013-06-18 04:18:00,58.1,54.9,29.89,ENE,60,0.0,0.0,89,0.00,,,0.00,WeatherDisplay:10.37,2013-06-18 08:18:00,
2013-06-18 04:23:00,58.1,54.6,29.89,ENE,61,0.0,0.0,88,0.00,,,0.00,WeatherDisplay:10.37,2013-06-18 08:23:00,
2013-06-18 04:28:00,58.1,54.6,29.89,ENE,60,0.0,0.0,88,0.00,,,0.00,WeatherDisplay:10.37,2013-06-18 08:28:00,
2013-06-18 04:33:00,58.1,54.6,29.89,NNE,29,0.0,0.0,88,0.00,,,0.00,WeatherDisplay:10.37,2013-06-18 08:33:00,
2013-06-18 04:38:00,58.1,54.6,29.89,NNE,29,0.0,0.0,88,0.00,,,0.00,WeatherDisplay:10.37,2013-06-18 08:38:00,
2013-06-18 04:43:00,58.1,54.9,29.89,NNE,29,0.0,0.0,89,0.00,,,0.00,WeatherDisplay:10.37,2013-06-18 08:43:00,
2013-06-18 04:48:00,58.1,54.9,29.89,NNE,28,0.0,0.0,89,0.00,,,0.00,WeatherDisplay:10.37,2013-06-18 08:48:00,
2013-06-18 04:53:00,58.0,54.8,29.89,NNE,29,0.0,0.0,89,0.00,,,0.00,WeatherDisplay:10.37,2013-06-18 08:53:00,
2013-06-18 04:58:00,57.9,54.7,29.89,NNE,29,0.0,0.0,89,0.00,,,0.00,WeatherDisplay:10.37,2013-06-18 08:58:00,
2013-06-18 05:03:00,57.9,54.4,29.88,NNE,29,0.0,0.0,88,0.00,CLR,,0.00,WeatherDisplay:10.37,2013-06-18 09:03:00,
2013-06-18 05:08:00,57.9,54.4,29.89,NNE,29,0.0,0.0,88,0.00,CLR,,0.00,WeatherDisplay:10.37,2013-06-18 09:08:00,
2013-06-18 05:13:00,57.9,54.4,29.90,WNW,282,1.1,1.1,88,0.00,CLR,,0.00,WeatherDisplay:10.37,2013-06-18 09:13:00,
2013-06-18 05:18:00,57.8,54.3,29.90,WNW,285,1.1,1.1,88,0.00,CLR,,0.00,WeatherDisplay:10.37,2013-06-18 09:18:00,
2013-06-18 05:23:00,57.8,54.3,29.90,West,262,1.1,1.1,88,0.00,CLR,,0.00,WeatherDisplay:10.37,2013-06-18 09:23:00,
2013-06-18 05:28:00,57.8,54.3,29.90,West,262,1.0,0.0,88,0.00,CLR,,0.00,WeatherDisplay:10.37,2013-06-18 09:28:00,
2013-06-18 05:33:00,57.7,54.2,29.90,West,271,1.1,1.1,88,0.00,CLR,,0.00,WeatherDisplay:10.37,2013-06-18 09:33:00,
2013-06-18 05:38:00,57.6,54.1,29.90,NW,321,0.0,0.0,88,0.00,CLR,,0.00,WeatherDisplay:10.37,2013-06-18 09:38:00,
2013-06-18 05:43:00,57.6,54.1,29.90,NNE,25,1.1,1.1,88,0.00,CLR,,0.00,WeatherDisplay:10.37,2013-06-18 09:43:00,
2013-06-18 05:48:00,57.5,54.0,29.90,NNE,18,0.0,0.0,88,0.00,CLR,,0.00,WeatherDisplay:10.37,2013-06-18 09:48:00,
2013-06-18 05:53:00,57.4,53.9,29.90,NNE,18,0.0,0.0,88,0.00,CLR,,0.00,WeatherDisplay:10.37,2013-06-18 09:53:00,
2013-06-18 05:58:00,57.4,53.9,29.90,ENE,60,0.0,0.0,88,0.00,CLR,,0.00,WeatherDisplay:10.37,2013-06-18 09:58:00,
2013-06-18 06:03:00,57.4,53.9,29.90,ENE,61,0.0,0.0,88,0.00,CLR,,0.00,WeatherDisplay:10.37,2013-06-18 10:03:00,
2013-06-18 06:08:00,57.4,53.9,29.91,West,264,0.0,0.0,88,0.00,CLR,,0.00,WeatherDisplay:10.37,2013-06-18 10:08:00,
2013-06-18 06:13:00,57.5,54.0,29.92,West,264,0.0,0.0,88,0.00,CLR,,0.00,WeatherDisplay:10.37,2013-06-18 10:13:00,
2013-06-18 06:18:00,57.6,54.1,29.92,West,274,1.1,1.1,88,0.00,CLR,,0.00,WeatherDisplay:10.37,2013-06-18 10:18:00,
2013-06-18 06:23:00,57.8,54.0,29.92,North,360,3.5,3.5,87,0.00,CLR,,0.00,WeatherDisplay:10.37,2013-06-18 10:23:00,
2013-06-18 06:28:00,57.9,54.4,29.92,NW,316,1.1,0.0,88,0.00,CLR,,0.00,WeatherDisplay:10.37,2013-06-18 10:28:00,
2013-06-18 06:33:00,58.0,54.5,29.93,SSE,153,0.0,0.0,88,0.00,CLR,,0.00,WeatherDisplay:10.37,2013-06-18 10:33:00,
2013-06-18 06:38:00,58.2,54.7,29.92,West,267,3.5,3.5,88,0.00,CLR,,0.00,WeatherDisplay:10.37,2013-06-18 10:38:00,
2013-06-18 06:43:00,58.4,55.2,29.93,ENE,66,1.1,0.0,89,0.00,CLR,,0.00,WeatherDisplay:10.37,2013-06-18 10:43:00,
2013-06-18 06:48:00,58.4,55.5,29.92,ESE,115,4.6,4.6,90,0.00,CLR,,0.00,WeatherDisplay:10.37,2013-06-18 10:48:00,
2013-06-18 06:53:00,58.4,55.5,29.93,NNW,328,3.5,3.5,90,0.00,CLR,,0.00,WeatherDisplay:10.37,2013-06-18 10:53:00,
2013-06-18 06:58:00,58.4,55.5,29.93,SE,131,1.1,0.0,90,0.00,CLR,,0.00,WeatherDisplay:10.37,2013-06-18 10:58:00,
2013-06-18 07:03:00,58.4,55.5,29.93,NNE,13,1.0,1.0,90,0.00,CLR,,0.00,WeatherDisplay:10.37,2013-06-18 11:03:00,
2013-06-18 07:08:00,58.4,55.2,29.93,ESE,110,0.0,0.0,89,0.00,CLR,,0.00,WeatherDisplay:10.37,2013-06-18 11:08:00,
2013-06-18 07:13:00,58.4,55.2,29.94,West,259,2.3,2.3,89,0.00,CLR,,0.00,WeatherDisplay:10.37,2013-06-18 11:13:00,
2013-06-18 07:18:00,58.5,55.3,29.94,ENE,70,0.0,0.0,89,0.00,CLR,,0.00,WeatherDisplay:10.37,2013-06-18 11:18:00,
2013-06-18 07:23:00,58.5,55.0,29.95,NE,44,0.0,0.0,88,0.00,CLR,,0.00,WeatherDisplay:10.37,2013-06-18 11:23:00,
2013-06-18 07:28:00,58.5,55.0,29.94,ESE,121,1.1,1.1,88,0.00,CLR,,0.00,WeatherDisplay:10.37,2013-06-18 11:28:00,
2013-06-18 07:33:00,58.5,55.0,29.94,North,10,1.1,1.1,88,0.00,CLR,,0.00,WeatherDisplay:10.37,2013-06-18 11:33:00,
2013-06-18 07:38:00,58.6,55.1,29.94,ENE,60,3.5,3.5,88,0.00,CLR,,0.00,WeatherDisplay:10.37,2013-06-18 11:38:00,
2013-06-18 07:43:00,58.7,54.8,29.94,ENE,58,2.3,2.3,87,0.00,CLR,,0.00,WeatherDisplay:10.37,2013-06-18 11:43:00,
2013-06-18 07:48:00,58.7,54.5,29.95,ENE,58,6.9,6.9,86,0.00,CLR,,0.00,WeatherDisplay:10.37,2013-06-18 11:48:00,
2013-06-18 07:53:00,58.6,54.4,29.96,NNE,22,6.0,6.0,86,0.00,CLR,,0.00,WeatherDisplay:10.37,2013-06-18 11:53:00,
2013-06-18 07:58:00,58.3,54.1,29.96,SW,236,5.8,5.8,86,0.00,CLR,,0.00,WeatherDisplay:10.37,2013-06-18 11:58:00,
2013-06-18 08:03:00,58.0,53.5,29.96,ESE,120,5.8,5.8,85,0.00,CLR,,0.00,WeatherDisplay:10.37,2013-06-18 12:03:00,
2013-06-18 08:08:00,57.9,53.4,29.96,East,82,3.5,3.5,85,0.00,CLR,,0.00,WeatherDisplay:10.37,2013-06-18 12:08:00,
2013-06-18 08:13:00,57.9,53.7,29.96,SE,139,5.8,5.8,86,0.00,CLR,,0.00,WeatherDisplay:10.37,2013-06-18 12:13:00,
2013-06-18 08:18:00,58.0,53.8,29.96,NW,316,9.2,9.2,86,0.00,CLR,,0.00,WeatherDisplay:10.37,2013-06-18 12:18:00,
2013-06-18 08:23:00,57.9,53.7,29.95,NNW,343,5.8,5.8,86,0.00,CLR,,0.00,WeatherDisplay:10.37,2013-06-18 12:23:00,
2013-06-18 08:28:00,58.0,53.8,29.95,SSW,211,3.5,3.5,86,0.00,CLR,,0.00,WeatherDisplay:10.37,2013-06-18 12:28:00,
2013-06-18 08:33:00,58.0,54.2,29.96,North,353,3.0,3.0,87,0.00,CLR,,0.00,WeatherDisplay:10.37,2013-06-18 12:33:00,
2013-06-18 08:38:00,57.9,54.1,29.96,SSW,195,2.3,2.3,87,0.00,CLR,,0.00,WeatherDisplay:10.37,2013-06-18 12:38:00,
2013-06-18 08:43:00,57.5,53.7,29.96,NE,40,8.1,8.1,87,0.00,CLR,,0.00,WeatherDisplay:10.37,2013-06-18 12:43:00,
2013-06-18 08:48:00,57.2,53.4,29.96,NE,40,6.0,6.0,87,0.00,CLR,,0.00,WeatherDisplay:10.37,2013-06-18 12:48:00,
2013-06-18 08:53:00,57.3,53.8,29.97,ESE,105,4.6,4.6,88,0.00,CLR,,0.00,WeatherDisplay:10.37,2013-06-18 12:53:00,
2013-06-18 08:58:00,57.3,53.5,29.97,ENE,57,8.1,8.1,87,0.00,CLR,,0.00,WeatherDisplay:10.37,2013-06-18 12:58:00,
2013-06-18 09:03:00,57.4,53.6,29.97,NW,313,3.5,3.5,87,0.00,CLR,,0.00,WeatherDisplay:10.37,2013-06-18 13:03:00,
2013-06-18 09:08:00,57.6,53.4,29.97,East,91,3.0,3.0,86,0.00,CLR,,0.00,WeatherDisplay:10.37,2013-06-18 13:08:00,
2013-06-18 09:13:00,57.7,53.5,29.98,NE,53,3.5,3.5,86,0.00,CLR,,0.00,WeatherDisplay:10.37,2013-06-18 13:13:00,
2013-06-18 09:18:00,57.8,53.6,29.97,East,90,4.6,4.6,86,0.00,CLR,,0.00,WeatherDisplay:10.37,2013-06-18 13:18:00,
2013-06-18 09:24:00,58.0,53.8,29.97,WNW,285,0.0,0.3,86,0.00,CLR,,0.00,WeatherDisplay:10.37,2013-06-18 13:24:00,
2013-06-18 09:29:00,58.2,53.4,29.97,ESE,103,2.3,2.3,84,0.00,CLR,,0.00,WeatherDisplay:10.37,2013-06-18 13:29:00,
2013-06-18 09:34:00,58.2,53.1,29.97,East,89,4.6,4.6,83,0.00,CLR,,0.00,WeatherDisplay:10.37,2013-06-18 13:34:00,
2013-06-18 09:39:00,58.1,53.3,29.97,NNE,13,4.0,4.0,84,0.00,CLR,,0.00,WeatherDisplay:10.37,2013-06-18 13:39:00,
2013-06-18 09:44:00,58.2,53.4,29.97,WSW,241,1.1,1.1,84,0.00,CLR,,0.00,WeatherDisplay:10.37,2013-06-18 13:44:00,
2013-06-18 09:49:00,58.4,53.6,29.98,North,354,2.3,2.3,84,0.00,CLR,,0.00,WeatherDisplay:10.37,2013-06-18 13:49:00,
2013-06-18 09:54:00,58.4,53.3,29.98,East,85,3.5,3.5,83,0.00,CLR,,0.00,WeatherDisplay:10.37,2013-06-18 13:54:00,
2013-06-18 09:59:00,58.6,53.8,29.98,WSW,241,3.5,3.5,84,0.00,CLR,,0.00,WeatherDisplay:10.37,2013-06-18 13:59:00,
2013-06-18 10:04:00,58.9,53.4,29.98,East,98,1.1,1.1,82,0.00,CLR,,0.00,WeatherDisplay:10.37,2013-06-18 14:04:00,
2013-06-18 10:09:00,59.0,53.2,29.98,NNE,13,2.3,2.3,81,0.00,CLR,,0.00,WeatherDisplay:10.37,2013-06-18 14:09:00,
2013-06-18 10:14:00,59.1,52.9,29.98,SE,137,2.3,2.3,80,0.00,CLR,,0.00,WeatherDisplay:10.37,2013-06-18 14:14:00,
2013-06-18 10:19:00,59.2,53.4,29.98,NNE,18,3.0,3.0,81,0.00,CLR,,0.00,WeatherDisplay:10.37,2013-06-18 14:19:00,
2013-06-18 10:24:00,59.0,51.8,29.98,ESE,103,3.5,3.5,77,0.00,CLR,,0.00,WeatherDisplay:10.37,2013-06-18 14:24:00,
2013-06-18 10:29:00,59.0,52.1,29.98,NE,49,2.3,2.3,78,0.00,CLR,,0.00,WeatherDisplay:10.37,2013-06-18 14:29:00,
2013-06-18 10:34:00,59.0,52.1,29.98,ESE,105,0.0,0.0,78,0.00,CLR,,0.00,WeatherDisplay:10.37,2013-06-18 14:34:00,
2013-06-18 10:39:00,59.3,52.1,29.98,SE,145,1.1,1.1,77,0.00,CLR,,0.00,WeatherDisplay:10.37,2013-06-18 14:39:00,
2013-06-18 10:44:00,59.5,52.3,29.98,NNE,30,2.3,2.3,77,0.00,CLR,,0.00,WeatherDisplay:10.37,2013-06-18 14:44:00,
2013-06-18 10:49:00,60.0,51.7,29.98,East,86,3.0,3.0,74,0.00,CLR,,0.00,WeatherDisplay:10.37,2013-06-18 14:49:00,
2013-06-18 10:54:00,60.3,52.3,29.97,NNE,18,1.1,1.1,75,0.00,CLR,,0.00,WeatherDisplay:10.37,2013-06-18 14:54:00,
2013-06-18 10:59:00,60.7,52.0,29.98,East,101,3.5,3.5,73,0.00,CLR,,0.00,WeatherDisplay:10.37,2013-06-18 14:59:00,
2013-06-18 11:05:00,61.7,52.2,29.97,ESE,107,4.6,4.6,71,0.00,CLR,,0.00,WeatherDisplay:10.37,2013-06-18 15:05:00,
2013-06-18 11:10:00,62.5,52.6,29.97,ESE,105,2.3,2.3,70,0.00,CLR,,0.00,WeatherDisplay:10.37,2013-06-18 15:10:00,
2013-06-18 11:15:00,62.8,52.1,29.97,SW,219,3.5,3.5,68,0.00,CLR,,0.00,WeatherDisplay:10.37,2013-06-18 15:15:00,
2013-06-18 11:20:00,63.2,52.5,29.97,ESE,118,3.0,3.0,68,0.00,CLR,,0.00,WeatherDisplay:10.37,2013-06-18 15:20:00,
2013-06-18 11:25:00,63.4,53.0,29.97,East,89,2.3,2.3,69,0.00,CLR,,0.00,WeatherDisplay:10.37,2013-06-18 15:25:00,
2013-06-18 11:30:00,63.3,52.6,29.97,West,264,3.5,3.5,68,0.00,CLR,,0.00,WeatherDisplay:10.37,2013-06-18 15:30:00,
2013-06-18 11:35:00,63.4,53.0,29.98,NE,40,3.5,3.5,69,0.00,CLR,,0.00,WeatherDisplay:10.37,2013-06-18 15:35:00,
2013-06-18 11:40:00,63.4,52.7,29.98,NNE,28,4.6,4.6,68,0.00,CLR,,0.00,WeatherDisplay:10.37,2013-06-18 15:40:00,
2013-06-18 11:45:00,63.1,53.5,29.98,NW,308,1.0,1.0,71,0.00,CLR,,0.00,WeatherDisplay:10.37,2013-06-18 15:45:00,
2013-06-18 11:50:00,63.0,53.1,29.98,ENE,65,3.5,3.5,70,0.00,CLR,,0.00,WeatherDisplay:10.37,2013-06-18 15:50:00,
2013-06-18 11:55:00,63.2,54.4,29.98,SW,222,2.3,2.3,73,0.00,CLR,,0.00,WeatherDisplay:10.37,2013-06-18 15:55:00,
2013-06-18 12:00:00,63.5,54.3,29.98,NE,52,5.0,5.0,72,0.00,CLR,,0.00,WeatherDisplay:10.37,2013-06-18 16:00:00,
2013-06-18 12:05:00,63.1,53.2,29.98,SE,129,4.0,4.0,70,0.00,CLR,,0.00,WeatherDisplay:10.37,2013-06-18 16:05:00,
2013-06-18 12:10:00,63.2,54.8,29.98,East,81,3.0,3.0,74,0.00,CLR,,0.00,WeatherDisplay:10.37,2013-06-18 16:10:00,
2013-06-18 12:15:00,62.9,52.6,29.98,SW,233,3.5,3.5,69,0.00,CLR,,0.00,WeatherDisplay:10.37,2013-06-18 16:15:00,
2013-06-18 12:20:00,63.3,53.3,29.98,SW,225,2.3,2.3,70,0.00,CLR,,0.00,WeatherDisplay:10.37,2013-06-18 16:20:00,
2013-06-18 12:25:00,63.9,52.3,29.99,SE,138,6.9,6.9,66,0.00,CLR,,0.00,WeatherDisplay:10.37,2013-06-18 16:25:00,
2013-06-18 12:30:00,63.9,49.3,29.99,North,11,6.9,6.9,59,0.00,CLR,,0.00,WeatherDisplay:10.37,2013-06-18 16:30:00,
2013-06-18 12:35:00,63.9,49.7,29.99,WSW,246,3.5,3.5,60,0.00,CLR,,0.00,WeatherDisplay:10.37,2013-06-18 16:35:00,
2013-06-18 12:40:00,64.1,49.9,29.99,NNE,22,8.1,8.1,60,0.00,CLR,,0.00,WeatherDisplay:10.37,2013-06-18 16:40:00,
2013-06-18 12:45:00,64.1,49.5,29.99,NNE,30,5.8,5.8,59,0.00,CLR,,0.00,WeatherDisplay:10.37,2013-06-18 16:45:00,
2013-06-18 12:50:00,64.1,49.9,29.99,SE,132,3.5,3.5,60,0.00,CLR,,0.00,WeatherDisplay:10.37,2013-06-18 16:50:00,
2013-06-18 12:55:00,64.1,49.9,29.98,SE,125,3.5,3.5,60,0.00,CLR,,0.00,WeatherDisplay:10.37,2013-06-18 16:55:00,
2013-06-18 13:00:00,64.2,50.0,29.98,ESE,114,3.5,3.5,60,0.00,CLR,,0.00,WeatherDisplay:10.37,2013-06-18 17:00:00,
2013-06-18 13:05:00,64.5,50.3,29.98,East,98,6.9,6.9,60,0.00,CLR,,0.00,WeatherDisplay:10.37,2013-06-18 17:05:00,
2013-06-18 13:10:00,64.9,51.6,29.99,North,3,4.0,4.0,62,0.00,CLR,,0.00,WeatherDisplay:10.37,2013-06-18 17:10:00,
2013-06-18 13:15:00,65.6,50.9,29.99,ESE,103,5.8,5.8,59,0.00,CLR,,0.00,WeatherDisplay:10.37,2013-06-18 17:15:00,
2013-06-18 13:20:00,65.5,50.3,29.99,NNE,23,7.0,7.0,58,0.00,CLR,,0.00,WeatherDisplay:10.37,2013-06-18 17:20:00,
2013-06-18 13:25:00,65.3,50.1,29.99,SSW,194,3.5,3.5,58,0.00,CLR,,0.00,WeatherDisplay:10.37,2013-06-18 17:25:00,
2013-06-18 13:30:00,65.3,50.1,29.99,NE,51,9.2,9.2,58,0.00,CLR,,0.00,WeatherDisplay:10.37,2013-06-18 17:30:00,
2013-06-18 13:35:00,65.4,49.3,29.99,WNW,298,4.6,4.6,56,0.00,CLR,,0.00,WeatherDisplay:10.37,2013-06-18 17:35:00,
2013-06-18 13:40:00,65.6,50.9,29.99,ENE,77,3.5,3.5,59,0.00,CLR,,0.00,WeatherDisplay:10.37,2013-06-18 17:40:00,
2013-06-18 13:45:00,65.8,52.0,29.99,NE,44,4.6,4.6,61,0.00,CLR,,0.00,WeatherDisplay:10.37,2013-06-18 17:45:00,
2013-06-18 13:50:00,65.9,51.2,29.99,ESE,108,6.9,6.9,59,0.00,CLR,,0.00,WeatherDisplay:10.37,2013-06-18 17:50:00,
2013-06-18 13:56:00,66.0,51.3,29.99,SSE,152,8.1,8.1,59,0.00,CLR,,0.00,WeatherDisplay:10.37,2013-06-18 17:56:00,
2013-06-18 14:01:00,66.1,50.9,29.99,SW,217,6.9,6.9,58,0.00,CLR,,0.00,WeatherDisplay:10.37,2013-06-18 18:01:00,
2013-06-18 14:06:00,66.4,52.1,29.99,East,81,2.3,2.3,60,0.00,CLR,,0.00,WeatherDisplay:10.37,2013-06-18 18:06:00,
2013-06-18 14:11:00,66.1,51.4,29.99,NE,47,6.9,6.9,59,0.00,CLR,,0.00,WeatherDisplay:10.37,2013-06-18 18:11:00,
2013-06-18 14:16:00,65.8,49.7,29.99,NE,41,8.0,8.0,56,0.00,CLR,,0.00,WeatherDisplay:10.37,2013-06-18 18:16:00,
2013-06-18 14:21:00,65.4,49.8,29.99,ENE,78,5.8,5.8,57,0.00,CLR,,0.00,WeatherDisplay:10.37,2013-06-18 18:21:00,
2013-06-18 14:26:00,65.5,49.9,29.98,ESE,112,3.5,3.5,57,0.00,CLR,,0.00,WeatherDisplay:10.37,2013-06-18 18:26:00,
2013-06-18 14:31:00,65.6,50.0,29.98,South,186,3.5,3.5,57,0.00,CLR,,0.00,WeatherDisplay:10.37,2013-06-18 18:31:00,
2013-06-18 14:36:00,66.0,49.8,29.98,East,98,5.8,5.8,56,0.00,CLR,,0.00,WeatherDisplay:10.37,2013-06-18 18:36:00,
2013-06-18 14:41:00,66.4,48.2,29.99,SSW,212,3.5,3.5,52,0.00,CLR,,0.00,WeatherDisplay:10.37,2013-06-18 18:41:00,
2013-06-18 14:46:00,66.1,48.5,29.99,SSW,207,6.9,6.9,53,0.00,CLR,,0.00,WeatherDisplay:10.37,2013-06-18 18:46:00,
2013-06-18 14:51:00,66.0,48.9,29.98,WSW,241,3.5,3.5,54,0.00,CLR,,0.00,WeatherDisplay:10.37,2013-06-18 18:51:00,
2013-06-18 14:56:00,66.3,49.6,29.98,SSW,207,4.6,4.6,55,0.00,CLR,,0.00,WeatherDisplay:10.37,2013-06-18 18:56:00,
2013-06-18 15:01:00,66.9,49.2,29.98,SE,131,4.6,4.6,53,0.00,CLR,,0.00,WeatherDisplay:10.37,2013-06-18 19:01:00,
2013-06-18 15:06:00,67.1,48.9,29.97,NE,49,5.8,5.8,52,0.00,CLR,,0.00,WeatherDisplay:10.37,2013-06-18 19:06:00,
2013-06-18 15:11:00,66.9,48.7,29.97,West,275,5.8,5.8,52,0.00,CLR,,0.00,WeatherDisplay:10.37,2013-06-18 19:11:00,
2013-06-18 15:16:00,67.0,49.3,29.97,NW,315,6.0,6.0,53,0.00,CLR,,0.00,WeatherDisplay:10.37,2013-06-18 19:16:00,
2013-06-18 15:21:00,66.8,50.1,29.97,WNW,283,4.6,4.6,55,0.00,CLR,,0.00,WeatherDisplay:10.37,2013-06-18 19:21:00,
2013-06-18 15:26:00,66.9,52.1,29.97,ESE,117,2.3,2.3,59,0.00,CLR,,0.00,WeatherDisplay:10.37,2013-06-18 19:26:00,
2013-06-18 15:31:00,67.1,50.9,29.97,South,173,9.2,9.2,56,0.00,CLR,,0.00,WeatherDisplay:10.37,2013-06-18 19:31:00,
2013-06-18 15:36:00,67.6,51.8,29.97,NNE,22,3.5,3.5,57,0.00,CLR,,0.00,WeatherDisplay:10.37,2013-06-18 19:36:00,
2013-06-18 15:41:00,67.2,50.0,29.97,NNE,20,3.5,3.5,54,0.00,CLR,,0.00,WeatherDisplay:10.37,2013-06-18 19:41:00,
2013-06-18 15:46:00,67.8,52.0,29.97,ESE,120,3.5,3.5,57,0.00,CLR,,0.00,WeatherDisplay:10.37,2013-06-18 19:46:00,
2013-06-18 15:51:00,68.0,49.7,29.97,NW,326,5.0,5.0,52,0.00,CLR,,0.00,WeatherDisplay:10.37,2013-06-18 19:51:00,
2013-06-18 15:56:00,67.8,50.0,29.98,WSW,251,6.9,6.9,53,0.00,CLR,,0.00,WeatherDisplay:10.37,2013-06-18 19:56:00,
2013-06-18 16:01:00,67.9,49.6,29.97,SE,125,5.8,5.8,52,0.00,CLR,,0.00,WeatherDisplay:10.37,2013-06-18 20:01:00,
2013-06-18 16:06:00,68.1,50.8,29.97,NE,54,5.0,5.0,54,0.00,CLR,,0.00,WeatherDisplay:10.37,2013-06-18 20:06:00,
2013-06-18 16:11:00,67.8,50.5,29.97,SE,129,8.1,8.1,54,0.00,CLR,,0.00,WeatherDisplay:10.37,2013-06-18 20:11:00,
2013-06-18 16:16:00,67.2,50.0,29.96,ESE,120,11.0,11.0,54,0.00,CLR,,0.00,WeatherDisplay:10.37,2013-06-18 20:16:00,
2013-06-18 16:21:00,67.5,50.8,29.96,WSW,255,5.8,5.8,55,0.00,CLR,,0.00,WeatherDisplay:10.37,2013-06-18 20:21:00,
2013-06-18 16:26:00,68.0,50.7,29.96,ENE,68,3.5,3.5,54,0.00,CLR,,0.00,WeatherDisplay:10.37,2013-06-18 20:26:00,
2013-06-18 16:31:00,67.6,49.9,29.96,North,354,10.4,10.4,53,0.00,CLR,,0.00,WeatherDisplay:10.37,2013-06-18 20:31:00,
2013-06-18 16:36:00,67.4,50.7,29.96,West,260,3.5,3.5,55,0.00,CLR,,0.00,WeatherDisplay:10.37,2013-06-18 20:36:00,
2013-06-18 16:42:00,68.0,50.2,29.96,SW,233,6.0,6.0,53,0.00,CLR,,0.00,WeatherDisplay:10.37,2013-06-18 20:42:00,
2013-06-18 16:47:00,67.9,51.1,29.96,SSE,149,5.8,5.8,55,0.00,CLR,,0.00,WeatherDisplay:10.37,2013-06-18 20:47:00,
2013-06-18 16:52:00,67.9,50.1,29.96,NE,44,4.6,4.6,53,0.00,CLR,,0.00,WeatherDisplay:10.37,2013-06-18 20:52:00,
2013-06-18 16:57:00,67.7,48.9,29.95,North,4,4.6,4.6,51,0.00,CLR,,0.00,WeatherDisplay:10.37,2013-06-18 20:57:00,
2013-06-18 17:02:00,67.8,50.0,29.95,ESE,114,2.3,2.3,53,0.00,CLR,,0.00,WeatherDisplay:10.37,2013-06-18 21:02:00,
2013-06-18 17:07:00,67.7,49.4,29.95,NNE,23,5.8,5.8,52,0.00,CLR,,0.00,WeatherDisplay:10.37,2013-06-18 21:07:00,
2013-06-18 17:12:00,67.7,50.5,29.95,West,262,5.0,5.0,54,0.00,CLR,,0.00,WeatherDisplay:10.37,2013-06-18 21:12:00,
2013-06-18 17:17:00,67.9,51.1,29.95,NNE,27,4.0,4.0,55,0.00,CLR,,0.00,WeatherDisplay:10.37,2013-06-18 21:17:00,
2013-06-18 17:22:00,68.0,50.2,29.95,NE,41,3.5,3.5,53,0.00,CLR,,0.00,WeatherDisplay:10.37,2013-06-18 21:22:00,
2013-06-18 17:27:00,67.9,49.1,29.95,ESE,120,5.8,5.8,51,0.00,CLR,,0.00,WeatherDisplay:10.37,2013-06-18 21:27:00,
2013-06-18 17:32:00,67.7,49.9,29.95,East,79,4.6,4.6,53,0.00,CLR,,0.00,WeatherDisplay:10.37,2013-06-18 21:32:00,
2013-06-18 17:37:00,67.7,49.9,29.95,NE,42,4.6,4.6,53,0.00,CLR,,0.00,WeatherDisplay:10.37,2013-06-18 21:37:00,
2013-06-18 17:42:00,67.7,50.5,29.95,WSW,253,2.3,2.3,54,0.00,CLR,,0.00,WeatherDisplay:10.37,2013-06-18 21:42:00,
2013-06-18 17:47:00,67.7,49.4,29.95,NW,309,3.5,3.5,52,0.00,CLR,,0.00,WeatherDisplay:10.37,2013-06-18 21:47:00,
2013-06-18 17:52:00,67.9,50.6,29.95,SW,233,3.5,3.5,54,0.00,CLR,,0.00,WeatherDisplay:10.37,2013-06-18 21:52:00,
2013-06-18 17:57:00,67.7,50.5,29.95,WSW,248,3.5,3.5,54,0.00,CLR,,0.00,WeatherDisplay:10.37,2013-06-18 21:57:00,
2013-06-18 18:02:00,67.7,50.5,29.95,ESE,103,8.1,8.1,54,0.00,CLR,,0.00,WeatherDisplay:10.37,2013-06-18 22:02:00,
2013-06-18 18:07:00,67.4,50.2,29.95,NE,52,4.0,4.0,54,0.00,CLR,,0.00,WeatherDisplay:10.37,2013-06-18 22:07:00,
2013-06-18 18:12:00,67.2,51.0,29.95,East,81,3.5,3.5,56,0.00,CLR,,0.00,WeatherDisplay:10.37,2013-06-18 22:12:00,
2013-06-18 18:17:00,67.5,51.2,29.95,WNW,298,1.1,1.1,56,0.00,CLR,,0.00,WeatherDisplay:10.37,2013-06-18 22:17:00,
2013-06-18 18:22:00,67.6,50.4,29.95,SSE,148,3.5,3.5,54,0.00,CLR,,0.00,WeatherDisplay:10.37,2013-06-18 22:22:00,
2013-06-18 18:27:00,67.7,50.9,29.95,WNW,283,3.0,3.0,55,0.00,CLR,,0.00,WeatherDisplay:10.37,2013-06-18 22:27:00,
2013-06-18 18:32:00,67.5,52.7,29.96,North,4,1.0,1.0,59,0.00,CLR,,0.00,WeatherDisplay:10.37,2013-06-18 22:32:00,
2013-06-18 18:37:00,67.5,50.3,29.96,North,4,4.6,4.6,54,0.00,CLR,,0.00,WeatherDisplay:10.37,2013-06-18 22:37:00,
2013-06-18 18:42:00,67.6,50.4,29.96,ENE,64,2.3,2.3,54,0.00,CLR,,0.00,WeatherDisplay:10.37,2013-06-18 22:42:00,
2013-06-18 18:47:00,67.7,50.9,29.96,WSW,250,0.0,0.1,55,0.00,CLR,,0.00,WeatherDisplay:10.37,2013-06-18 22:47:00,
2013-06-18 18:52:00,67.5,50.8,29.96,NE,46,2.3,2.3,55,0.00,CLR,,0.00,WeatherDisplay:10.37,2013-06-18 22:52:00,
2013-06-18 18:57:00,67.4,51.6,29.96,East,96,3.5,3.5,57,0.00,CLR,,0.00,WeatherDisplay:10.37,2013-06-18 22:57:00,
2013-06-18 19:02:00,67.4,51.6,29.96,NW,307,2.3,0.0,57,0.00,CLR,,0.00,WeatherDisplay:10.37,2013-06-18 23:02:00,
2013-06-18 19:07:00,67.3,51.5,29.96,WSW,246,2.3,0.0,57,0.00,CLR,,0.00,WeatherDisplay:10.37,2013-06-18 23:07:00,
2013-06-18 19:12:00,67.6,53.7,29.96,South,187,0.0,0.0,61,0.00,CLR,,0.00,WeatherDisplay:10.37,2013-06-18 23:12:00,
2013-06-18 19:17:00,67.4,51.6,29.97,East,91,1.1,0.0,57,0.00,CLR,,0.00,WeatherDisplay:10.37,2013-06-18 23:17:00,
2013-06-18 19:22:00,67.2,51.9,29.97,WSW,245,0.0,0.0,58,0.00,CLR,,0.00,WeatherDisplay:10.37,2013-06-18 23:22:00,
2013-06-18 19:27:00,66.9,51.6,29.97,WSW,252,1.1,1.1,58,0.00,CLR,,0.00,WeatherDisplay:10.37,2013-06-18 23:27:00,
2013-06-18 19:32:00,65.8,51.1,29.97,East,80,0.0,0.0,59,0.00,CLR,,0.00,WeatherDisplay:10.37,2013-06-18 23:32:00,
2013-06-18 19:37:00,64.9,51.6,29.97,ESE,108,0.0,0.0,62,0.00,CLR,,0.00,WeatherDisplay:10.37,2013-06-18 23:37:00,
2013-06-18 19:42:00,64.2,51.3,29.97,ESE,108,0.0,0.0,63,0.00,CLR,,0.00,WeatherDisplay:10.37,2013-06-18 23:42:00,
2013-06-18 19:47:00,63.3,51.7,29.97,WSW,252,0.0,0.0,66,0.00,CLR,,0.00,WeatherDisplay:10.37,2013-06-18 23:47:00,
2013-06-18 19:52:00,62.8,52.1,29.97,WSW,252,0.0,0.0,68,0.00,CLR,,0.00,WeatherDisplay:10.37,2013-06-18 23:52:00,
2013-06-18 19:57:00,62.2,52.3,29.97,WSW,253,0.0,0.0,70,0.00,CLR,,0.00,WeatherDisplay:10.37,2013-06-18 23:57:00,
2013-06-18 20:02:00,61.5,52.4,29.98,WSW,253,0.0,0.0,72,0.00,CLR,,0.00,WeatherDisplay:10.37,2013-06-19 00:02:00,
2013-06-18 20:07:00,60.9,52.9,29.97,WSW,252,0.0,0.0,75,0.00,CLR,,0.00,WeatherDisplay:10.37,2013-06-19 00:07:00,
2013-06-18 20:12:00,60.3,52.7,29.98,WSW,253,0.0,0.0,76,0.00,CLR,,0.00,WeatherDisplay:10.37,2013-06-19 00:12:00,
2013-06-18 20:17:00,59.6,52.7,29.98,WSW,253,0.0,0.0,78,0.00,CLR,,0.00,WeatherDisplay:10.37,2013-06-19 00:17:00,
2013-06-18 20:22:00,59.0,52.8,29.98,WSW,253,0.0,0.0,80,0.00,CLR,,0.00,WeatherDisplay:10.37,2013-06-19 00:22:00,
2013-06-18 20:27:00,58.4,52.6,29.98,WSW,253,0.0,0.0,81,0.00,CLR,,0.00,WeatherDisplay:10.37,2013-06-19 00:27:00,
2013-06-18 20:32:00,57.9,52.4,29.98,WSW,253,0.0,0.0,82,0.00,CLR,,0.00,WeatherDisplay:10.37,2013-06-19 00:32:00,
2013-06-18 20:38:00,57.4,52.3,29.98,WSW,253,0.0,0.0,83,0.00,CLR,,0.00,WeatherDisplay:10.37,2013-06-19 00:38:00,
2013-06-18 20:43:00,57.0,51.9,29.98,WSW,253,0.0,0.0,83,0.00,CLR,,0.00,WeatherDisplay:10.37,2013-06-19 00:43:00,
2013-06-18 20:48:00,56.6,51.8,29.98,WSW,253,0.0,0.0,84,0.00,CLR,,0.00,WeatherDisplay:10.37,2013-06-19 00:48:00,
2013-06-18 20:53:00,56.1,51.7,29.98,WSW,253,0.0,0.0,85,0.00,CLR,,0.00,WeatherDisplay:10.37,2013-06-19 00:53:00,
2013-06-18 20:58:00,55.7,51.3,29.99,WSW,253,0.0,0.0,85,0.00,CLR,,0.00,WeatherDisplay:10.37,2013-06-19 00:58:00,
2013-06-18 21:03:00,55.4,51.6,29.99,WSW,253,0.0,0.0,87,0.00,,,0.00,WeatherDisplay:10.37,2013-06-19 01:03:00,
2013-06-18 21:08:00,55.1,51.3,29.99,WSW,253,0.0,0.0,87,0.00,,,0.00,WeatherDisplay:10.37,2013-06-19 01:08:00,
2013-06-18 21:13:00,54.6,50.8,29.99,WSW,252,0.0,0.0,87,0.00,,,0.00,WeatherDisplay:10.37,2013-06-19 01:13:00,
2013-06-18 21:18:00,54.2,50.4,29.99,WSW,253,0.0,0.0,87,0.00,,,0.00,WeatherDisplay:10.37,2013-06-19 01:18:00,
2013-06-18 21:23:00,53.8,50.3,30.00,WSW,253,0.0,0.0,88,0.00,,,0.00,WeatherDisplay:10.37,2013-06-19 01:23:00,